sensor_id;sensor_type;location;lat;lon;timestamp;P1;durP1;ratioP1;P2;durP2;ratioP2
79706;SDS011;69200;53.612;-2.416;2023-09-19T00:01:28;2.83;;;0.63;;
79706;SDS011;69200;53.612;-2.416;2023-09-19T00:03:55;9.55;;;1.13;;
79706;SDS011;69200;53.612;-2.416;2023-09-19T00:06:22;9.98;;;1.10;;
79706;SDS011;69200;53.612;-2.416;2023-09-19T00:08:54;6.65;;;0.85;;
79706;SDS011;69200;53.612;-2.416;2023-09-19T00:11:19;7.13;;;0.90;;
79706;SDS011;69200;53.612;-2.416;2023-09-19T00:13:47;2.50;;;0.50;;
79706;SDS011;69200;53.612;-2.416;2023-09-19T00:16:15;7.97;;;1.42;;
79706;SDS011;69200;53.612;-2.416;2023-09-19T00:18:40;5.90;;;1.02;;
79706;SDS011;69200;53.612;-2.416;2023-09-19T00:21:05;6.65;;;1.08;;
79706;SDS011;69200;53.612;-2.416;2023-09-19T00:23:32;5.22;;;0.80;;
79706;SDS011;69200;53.612;-2.416;2023-09-19T00:25:58;6.35;;;1.17;;
79706;SDS011;69200;53.612;-2.416;2023-09-19T00:28:24;12.82;;;1.23;;
79706;SDS011;69200;53.612;-2.416;2023-09-19T00:30:50;7.03;;;1.35;;
79706;SDS011;69200;53.612;-2.416;2023-09-19T00:33:15;8.80;;;1.23;;
79706;SDS011;69200;53.612;-2.416;2023-09-19T00:36:02;5.88;;;1.05;;
79706;SDS011;69200;53.612;-2.416;2023-09-19T00:38:30;7.82;;;1.40;;
79706;SDS011;69200;53.612;-2.416;2023-09-19T00:40:57;5.75;;;0.80;;
79706;SDS011;69200;53.612;-2.416;2023-09-19T00:43:22;9.07;;;1.13;;
79706;SDS011;69200;53.612;-2.416;2023-09-19T00:45:50;8.38;;;1.45;;
79706;SDS011;69200;53.612;-2.416;2023-09-19T00:48:16;9.25;;;1.20;;
79706;SDS011;69200;53.612;-2.416;2023-09-19T00:50:43;4.53;;;1.05;;
79706;SDS011;69200;53.612;-2.416;2023-09-19T00:53:13;3.83;;;0.95;;
79706;SDS011;69200;53.612;-2.416;2023-09-19T00:55:43;5.45;;;1.02;;
79706;SDS011;69200;53.612;-2.416;2023-09-19T00:58:09;7.50;;;1.13;;
79706;SDS011;69200;53.612;-2.416;2023-09-19T01:00:35;10.32;;;1.33;;
79706;SDS011;69200;53.612;-2.416;2023-09-19T01:03:00;6.32;;;1.35;;
79706;SDS011;69200;53.612;-2.416;2023-09-19T01:05:27;5.88;;;1.10;;
79706;SDS011;69200;53.612;-2.416;2023-09-19T01:07:53;6.28;;;1.25;;
79706;SDS011;69200;53.612;-2.416;2023-09-19T01:10:19;7.25;;;0.90;;
79706;SDS011;69200;53.612;-2.416;2023-09-19T01:24:09;8.23;;;1.13;;
79706;SDS011;69200;53.612;-2.416;2023-09-19T01:32:04;6.25;;;1.15;;
79706;SDS011;69200;53.612;-2.416;2023-09-19T01:34:50;5.38;;;1.15;;
79706;SDS011;69200;53.612;-2.416;2023-09-19T01:37:18;11.00;;;1.17;;
79706;SDS011;69200;53.612;-2.416;2023-09-19T01:40:07;5.85;;;1.10;;
79706;SDS011;69200;53.612;-2.416;2023-09-19T01:47:56;8.27;;;1.75;;
79706;SDS011;69200;53.612;-2.416;2023-09-19T01:50:32;11.32;;;1.67;;
79706;SDS011;69200;53.612;-2.416;2023-09-19T01:55:53;6.90;;;1.20;;
79706;SDS011;69200;53.612;-2.416;2023-09-19T01:58:21;8.07;;;1.35;;
79706;SDS011;69200;53.612;-2.416;2023-09-19T02:00:55;7.38;;;1.40;;
79706;SDS011;69200;53.612;-2.416;2023-09-19T02:03:23;13.13;;;1.45;;
79706;SDS011;69200;53.612;-2.416;2023-09-19T02:05:50;9.05;;;1.25;;
79706;SDS011;69200;53.612;-2.416;2023-09-19T02:08:19;6.38;;;1.80;;
79706;SDS011;69200;53.612;-2.416;2023-09-19T02:10:49;7.75;;;1.55;;
79706;SDS011;69200;53.612;-2.416;2023-09-19T02:13:17;6.53;;;1.60;;
79706;SDS011;69200;53.612;-2.416;2023-09-19T02:15:44;12.35;;;1.95;;
79706;SDS011;69200;53.612;-2.416;2023-09-19T02:18:10;10.95;;;1.40;;
79706;SDS011;69200;53.612;-2.416;2023-09-19T02:20:37;5.03;;;1.00;;
79706;SDS011;69200;53.612;-2.416;2023-09-19T02:23:02;10.48;;;1.48;;
79706;SDS011;69200;53.612;-2.416;2023-09-19T02:25:28;11.93;;;1.30;;
79706;SDS011;69200;53.612;-2.416;2023-09-19T02:27:54;9.68;;;1.60;;
79706;SDS011;69200;53.612;-2.416;2023-09-19T02:30:19;8.63;;;1.40;;
79706;SDS011;69200;53.612;-2.416;2023-09-19T02:32:50;8.60;;;1.50;;
79706;SDS011;69200;53.612;-2.416;2023-09-19T02:35:15;8.90;;;1.48;;
79706;SDS011;69200;53.612;-2.416;2023-09-19T02:37:41;5.97;;;1.50;;
79706;SDS011;69200;53.612;-2.416;2023-09-19T02:40:07;8.77;;;1.60;;
79706;SDS011;69200;53.612;-2.416;2023-09-19T02:42:43;9.20;;;1.27;;
79706;SDS011;69200;53.612;-2.416;2023-09-19T02:45:15;12.15;;;1.65;;
79706;SDS011;69200;53.612;-2.416;2023-09-19T02:47:42;11.30;;;1.55;;
79706;SDS011;69200;53.612;-2.416;2023-09-19T02:50:08;11.65;;;1.45;;
79706;SDS011;69200;53.612;-2.416;2023-09-19T02:52:35;5.95;;;1.23;;
79706;SDS011;69200;53.612;-2.416;2023-09-19T02:55:01;6.68;;;1.23;;
79706;SDS011;69200;53.612;-2.416;2023-09-19T02:57:29;11.75;;;1.52;;
79706;SDS011;69200;53.612;-2.416;2023-09-19T02:59:54;11.50;;;1.45;;
79706;SDS011;69200;53.612;-2.416;2023-09-19T03:02:20;13.15;;;2.00;;
79706;SDS011;69200;53.612;-2.416;2023-09-19T03:04:49;9.90;;;1.23;;
79706;SDS011;69200;53.612;-2.416;2023-09-19T03:07:16;9.13;;;1.38;;
79706;SDS011;69200;53.612;-2.416;2023-09-19T03:09:42;9.20;;;1.48;;
79706;SDS011;69200;53.612;-2.416;2023-09-19T03:12:08;6.55;;;1.55;;
79706;SDS011;69200;53.612;-2.416;2023-09-19T03:14:33;9.65;;;1.80;;
79706;SDS011;69200;53.612;-2.416;2023-09-19T03:17:00;7.97;;;1.55;;
79706;SDS011;69200;53.612;-2.416;2023-09-19T03:19:26;12.00;;;1.58;;
79706;SDS011;69200;53.612;-2.416;2023-09-19T03:21:51;10.15;;;1.65;;
79706;SDS011;69200;53.612;-2.416;2023-09-19T03:24:18;11.93;;;2.10;;
79706;SDS011;69200;53.612;-2.416;2023-09-19T03:26:44;10.60;;;1.60;;
79706;SDS011;69200;53.612;-2.416;2023-09-19T03:29:10;11.75;;;1.58;;
79706;SDS011;69200;53.612;-2.416;2023-09-19T03:31:36;11.57;;;1.92;;
79706;SDS011;69200;53.612;-2.416;2023-09-19T03:34:02;12.10;;;1.70;;
79706;SDS011;69200;53.612;-2.416;2023-09-19T03:36:28;13.32;;;2.10;;
79706;SDS011;69200;53.612;-2.416;2023-09-19T03:38:54;12.05;;;2.13;;
79706;SDS011;69200;53.612;-2.416;2023-09-19T03:41:19;8.18;;;1.40;;
79706;SDS011;69200;53.612;-2.416;2023-09-19T03:43:45;11.98;;;2.13;;
79706;SDS011;69200;53.612;-2.416;2023-09-19T03:46:10;6.93;;;1.50;;
79706;SDS011;69200;53.612;-2.416;2023-09-19T03:48:37;10.68;;;1.80;;
79706;SDS011;69200;53.612;-2.416;2023-09-19T03:51:03;10.40;;;1.60;;
79706;SDS011;69200;53.612;-2.416;2023-09-19T03:53:28;16.90;;;2.33;;
79706;SDS011;69200;53.612;-2.416;2023-09-19T03:55:54;9.40;;;1.63;;
79706;SDS011;69200;53.612;-2.416;2023-09-19T03:58:20;11.05;;;1.55;;
79706;SDS011;69200;53.612;-2.416;2023-09-19T04:00:45;17.25;;;2.35;;
79706;SDS011;69200;53.612;-2.416;2023-09-19T04:03:11;9.23;;;1.55;;
79706;SDS011;69200;53.612;-2.416;2023-09-19T04:05:44;10.15;;;1.25;;
79706;SDS011;69200;53.612;-2.416;2023-09-19T04:08:10;10.52;;;1.55;;
79706;SDS011;69200;53.612;-2.416;2023-09-19T04:10:35;14.70;;;1.83;;
79706;SDS011;69200;53.612;-2.416;2023-09-19T04:13:00;6.50;;;1.25;;
79706;SDS011;69200;53.612;-2.416;2023-09-19T04:15:26;12.38;;;1.73;;
79706;SDS011;69200;53.612;-2.416;2023-09-19T04:17:52;12.95;;;1.70;;
79706;SDS011;69200;53.612;-2.416;2023-09-19T04:20:18;11.07;;;1.83;;
79706;SDS011;69200;53.612;-2.416;2023-09-19T04:22:49;7.85;;;1.77;;
79706;SDS011;69200;53.612;-2.416;2023-09-19T04:25:15;15.55;;;1.58;;
79706;SDS011;69200;53.612;-2.416;2023-09-19T04:27:40;10.15;;;1.52;;
79706;SDS011;69200;53.612;-2.416;2023-09-19T04:30:07;8.15;;;1.30;;
79706;SDS011;69200;53.612;-2.416;2023-09-19T04:32:37;7.28;;;1.50;;
79706;SDS011;69200;53.612;-2.416;2023-09-19T04:35:09;8.48;;;1.75;;
79706;SDS011;69200;53.612;-2.416;2023-09-19T04:37:39;11.93;;;1.90;;
79706;SDS011;69200;53.612;-2.416;2023-09-19T04:40:07;8.95;;;1.83;;
79706;SDS011;69200;53.612;-2.416;2023-09-19T04:42:42;13.32;;;2.15;;
79706;SDS011;69200;53.612;-2.416;2023-09-19T04:45:11;8.38;;;1.65;;
79706;SDS011;69200;53.612;-2.416;2023-09-19T04:47:37;8.00;;;1.58;;
79706;SDS011;69200;53.612;-2.416;2023-09-19T04:50:05;12.00;;;1.85;;
79706;SDS011;69200;53.612;-2.416;2023-09-19T04:52:37;9.98;;;1.52;;
79706;SDS011;69200;53.612;-2.416;2023-09-19T04:55:04;10.68;;;2.10;;
79706;SDS011;69200;53.612;-2.416;2023-09-19T04:57:30;11.50;;;1.73;;
79706;SDS011;69200;53.612;-2.416;2023-09-19T04:59:57;6.82;;;1.52;;
79706;SDS011;69200;53.612;-2.416;2023-09-19T05:02:22;10.50;;;2.05;;
79706;SDS011;69200;53.612;-2.416;2023-09-19T05:04:47;10.35;;;1.42;;
79706;SDS011;69200;53.612;-2.416;2023-09-19T05:07:13;12.20;;;1.90;;
79706;SDS011;69200;53.612;-2.416;2023-09-19T05:09:38;9.85;;;1.95;;
79706;SDS011;69200;53.612;-2.416;2023-09-19T05:12:04;8.80;;;1.67;;
79706;SDS011;69200;53.612;-2.416;2023-09-19T05:14:29;9.80;;;1.90;;
79706;SDS011;69200;53.612;-2.416;2023-09-19T05:16:55;12.67;;;1.83;;
79706;SDS011;69200;53.612;-2.416;2023-09-19T05:19:20;7.50;;;1.63;;
79706;SDS011;69200;53.612;-2.416;2023-09-19T05:21:45;12.73;;;1.88;;
79706;SDS011;69200;53.612;-2.416;2023-09-19T05:24:12;6.38;;;1.55;;
79706;SDS011;69200;53.612;-2.416;2023-09-19T05:26:39;7.97;;;1.58;;
79706;SDS011;69200;53.612;-2.416;2023-09-19T05:29:05;12.00;;;1.50;;
79706;SDS011;69200;53.612;-2.416;2023-09-19T05:31:33;10.05;;;1.90;;
79706;SDS011;69200;53.612;-2.416;2023-09-19T05:34:01;7.15;;;1.75;;
79706;SDS011;69200;53.612;-2.416;2023-09-19T05:36:27;10.40;;;1.83;;
79706;SDS011;69200;53.612;-2.416;2023-09-19T05:38:54;6.82;;;2.00;;
79706;SDS011;69200;53.612;-2.416;2023-09-19T05:41:20;9.43;;;1.98;;
79706;SDS011;69200;53.612;-2.416;2023-09-19T05:43:46;7.85;;;1.75;;
79706;SDS011;69200;53.612;-2.416;2023-09-19T05:46:15;4.93;;;1.40;;
79706;SDS011;69200;53.612;-2.416;2023-09-19T05:48:40;8.77;;;1.67;;
79706;SDS011;69200;53.612;-2.416;2023-09-19T05:51:06;7.10;;;1.58;;
79706;SDS011;69200;53.612;-2.416;2023-09-19T05:53:32;8.27;;;1.70;;
79706;SDS011;69200;53.612;-2.416;2023-09-19T05:55:58;6.07;;;2.20;;
79706;SDS011;69200;53.612;-2.416;2023-09-19T05:58:23;7.10;;;1.80;;
79706;SDS011;69200;53.612;-2.416;2023-09-19T06:00:49;9.13;;;1.58;;
79706;SDS011;69200;53.612;-2.416;2023-09-19T06:03:15;6.53;;;1.80;;
79706;SDS011;69200;53.612;-2.416;2023-09-19T06:05:42;6.95;;;1.77;;
79706;SDS011;69200;53.612;-2.416;2023-09-19T06:08:08;8.82;;;1.95;;
79706;SDS011;69200;53.612;-2.416;2023-09-19T06:10:34;4.68;;;1.65;;
79706;SDS011;69200;53.612;-2.416;2023-09-19T06:13:00;5.88;;;1.27;;
79706;SDS011;69200;53.612;-2.416;2023-09-19T06:15:29;4.32;;;1.35;;
79706;SDS011;69200;53.612;-2.416;2023-09-19T06:17:57;6.63;;;1.67;;
79706;SDS011;69200;53.612;-2.416;2023-09-19T06:20:25;5.22;;;1.40;;
79706;SDS011;69200;53.612;-2.416;2023-09-19T06:22:51;7.32;;;1.85;;
79706;SDS011;69200;53.612;-2.416;2023-09-19T06:25:17;7.13;;;2.05;;
79706;SDS011;69200;53.612;-2.416;2023-09-19T06:27:51;7.45;;;1.50;;
79706;SDS011;69200;53.612;-2.416;2023-09-19T06:30:18;5.90;;;1.75;;
79706;SDS011;69200;53.612;-2.416;2023-09-19T06:32:45;5.65;;;1.55;;
79706;SDS011;69200;53.612;-2.416;2023-09-19T06:35:11;9.23;;;1.52;;
79706;SDS011;69200;53.612;-2.416;2023-09-19T06:37:38;6.70;;;1.80;;
79706;SDS011;69200;53.612;-2.416;2023-09-19T06:40:05;6.05;;;1.80;;
79706;SDS011;69200;53.612;-2.416;2023-09-19T06:42:33;6.65;;;1.85;;
79706;SDS011;69200;53.612;-2.416;2023-09-19T06:44:59;7.80;;;2.38;;
79706;SDS011;69200;53.612;-2.416;2023-09-19T06:47:24;10.65;;;1.80;;
79706;SDS011;69200;53.612;-2.416;2023-09-19T06:49:51;9.18;;;2.00;;
79706;SDS011;69200;53.612;-2.416;2023-09-19T06:52:17;5.63;;;1.40;;
79706;SDS011;69200;53.612;-2.416;2023-09-19T06:54:44;7.05;;;1.52;;
79706;SDS011;69200;53.612;-2.416;2023-09-19T06:57:09;6.55;;;1.80;;
79706;SDS011;69200;53.612;-2.416;2023-09-19T06:59:35;4.80;;;1.77;;
79706;SDS011;69200;53.612;-2.416;2023-09-19T07:02:02;7.20;;;2.17;;
79706;SDS011;69200;53.612;-2.416;2023-09-19T07:04:27;7.97;;;1.90;;
79706;SDS011;69200;53.612;-2.416;2023-09-19T07:06:53;5.20;;;1.30;;
79706;SDS011;69200;53.612;-2.416;2023-09-19T07:09:18;5.90;;;1.40;;
79706;SDS011;69200;53.612;-2.416;2023-09-19T07:11:47;3.83;;;1.00;;
79706;SDS011;69200;53.612;-2.416;2023-09-19T07:14:13;6.10;;;1.67;;
79706;SDS011;69200;53.612;-2.416;2023-09-19T07:16:38;7.25;;;2.10;;
79706;SDS011;69200;53.612;-2.416;2023-09-19T07:19:05;7.22;;;2.03;;
79706;SDS011;69200;53.612;-2.416;2023-09-19T07:21:31;6.88;;;1.77;;
79706;SDS011;69200;53.612;-2.416;2023-09-19T07:23:59;9.32;;;1.73;;
79706;SDS011;69200;53.612;-2.416;2023-09-19T07:26:26;4.78;;;1.70;;
79706;SDS011;69200;53.612;-2.416;2023-09-19T07:28:52;5.45;;;1.60;;
79706;SDS011;69200;53.612;-2.416;2023-09-19T07:31:18;7.65;;;1.40;;
79706;SDS011;69200;53.612;-2.416;2023-09-19T07:33:43;4.88;;;1.40;;
79706;SDS011;69200;53.612;-2.416;2023-09-19T07:36:09;6.28;;;1.75;;
79706;SDS011;69200;53.612;-2.416;2023-09-19T07:38:36;4.35;;;1.30;;
79706;SDS011;69200;53.612;-2.416;2023-09-19T07:41:02;4.32;;;1.48;;
79706;SDS011;69200;53.612;-2.416;2023-09-19T07:43:28;7.97;;;2.30;;
79706;SDS011;69200;53.612;-2.416;2023-09-19T07:45:54;6.93;;;1.70;;
79706;SDS011;69200;53.612;-2.416;2023-09-19T07:48:19;8.15;;;1.83;;
79706;SDS011;69200;53.612;-2.416;2023-09-19T07:50:44;6.95;;;1.83;;
79706;SDS011;69200;53.612;-2.416;2023-09-19T07:53:10;5.82;;;1.58;;
79706;SDS011;69200;53.612;-2.416;2023-09-19T07:55:38;4.63;;;1.33;;
79706;SDS011;69200;53.612;-2.416;2023-09-19T07:58:06;6.60;;;1.38;;
79706;SDS011;69200;53.612;-2.416;2023-09-19T08:00:32;5.00;;;1.60;;
79706;SDS011;69200;53.612;-2.416;2023-09-19T08:03:00;7.07;;;1.58;;
79706;SDS011;69200;53.612;-2.416;2023-09-19T08:05:26;4.45;;;1.50;;
79706;SDS011;69200;53.612;-2.416;2023-09-19T08:07:51;6.82;;;1.25;;
79706;SDS011;69200;53.612;-2.416;2023-09-19T08:10:19;4.90;;;1.48;;
79706;SDS011;69200;53.612;-2.416;2023-09-19T08:12:46;7.30;;;1.35;;
79706;SDS011;69200;53.612;-2.416;2023-09-19T08:17:44;5.00;;;1.80;;
79706;SDS011;69200;53.612;-2.416;2023-09-19T08:20:10;5.07;;;1.35;;
79706;SDS011;69200;53.612;-2.416;2023-09-19T08:22:42;6.65;;;1.35;;
79706;SDS011;69200;53.612;-2.416;2023-09-19T08:25:09;6.38;;;1.42;;
79706;SDS011;69200;53.612;-2.416;2023-09-19T08:27:34;5.45;;;1.48;;
79706;SDS011;69200;53.612;-2.416;2023-09-19T08:30:01;6.25;;;1.60;;
79706;SDS011;69200;53.612;-2.416;2023-09-19T08:32:28;6.43;;;1.88;;
79706;SDS011;69200;53.612;-2.416;2023-09-19T08:34:54;7.97;;;1.60;;
79706;SDS011;69200;53.612;-2.416;2023-09-19T08:37:19;5.90;;;1.48;;
79706;SDS011;69200;53.612;-2.416;2023-09-19T08:39:45;3.72;;;1.13;;
79706;SDS011;69200;53.612;-2.416;2023-09-19T08:42:11;4.65;;;1.20;;
79706;SDS011;69200;53.612;-2.416;2023-09-19T08:44:37;5.50;;;1.08;;
79706;SDS011;69200;53.612;-2.416;2023-09-19T08:47:15;6.45;;;1.33;;
79706;SDS011;69200;53.612;-2.416;2023-09-19T08:52:53;5.60;;;1.65;;
79706;SDS011;69200;53.612;-2.416;2023-09-19T08:55:22;4.63;;;1.30;;
79706;SDS011;69200;53.612;-2.416;2023-09-19T08:57:52;4.65;;;1.10;;
79706;SDS011;69200;53.612;-2.416;2023-09-19T09:00:29;5.35;;;1.10;;
79706;SDS011;69200;53.612;-2.416;2023-09-19T09:02:56;2.90;;;0.93;;
79706;SDS011;69200;53.612;-2.416;2023-09-19T09:05:26;7.63;;;2.63;;
79706;SDS011;69200;53.612;-2.416;2023-09-19T09:07:53;2.75;;;0.88;;
79706;SDS011;69200;53.612;-2.416;2023-09-19T09:10:21;3.33;;;1.10;;
79706;SDS011;69200;53.612;-2.416;2023-09-19T09:12:48;6.57;;;1.23;;
79706;SDS011;69200;53.612;-2.416;2023-09-19T09:15:17;4.15;;;1.08;;
79706;SDS011;69200;53.612;-2.416;2023-09-19T09:17:49;2.55;;;0.80;;
79706;SDS011;69200;53.612;-2.416;2023-09-19T09:20:16;4.18;;;1.08;;
79706;SDS011;69200;53.612;-2.416;2023-09-19T09:23:04;2.63;;;0.75;;
79706;SDS011;69200;53.612;-2.416;2023-09-19T09:28:32;3.28;;;0.68;;
79706;SDS011;69200;53.612;-2.416;2023-09-19T09:30:59;4.10;;;0.70;;
79706;SDS011;69200;53.612;-2.416;2023-09-19T09:33:26;4.30;;;0.60;;
79706;SDS011;69200;53.612;-2.416;2023-09-19T09:35:58;1.48;;;0.47;;
79706;SDS011;69200;53.612;-2.416;2023-09-19T09:38:44;2.03;;;0.60;;
79706;SDS011;69200;53.612;-2.416;2023-09-19T09:41:11;3.33;;;0.73;;
79706;SDS011;69200;53.612;-2.416;2023-09-19T09:43:42;3.42;;;0.75;;
79706;SDS011;69200;53.612;-2.416;2023-09-19T09:46:12;2.25;;;0.40;;
79706;SDS011;69200;53.612;-2.416;2023-09-19T09:48:44;2.40;;;0.45;;
79706;SDS011;69200;53.612;-2.416;2023-09-19T09:51:30;2.35;;;0.50;;
79706;SDS011;69200;53.612;-2.416;2023-09-19T09:54:09;2.97;;;0.60;;
79706;SDS011;69200;53.612;-2.416;2023-09-19T09:56:51;1.50;;;0.40;;
79706;SDS011;69200;53.612;-2.416;2023-09-19T09:59:46;1.83;;;0.50;;
79706;SDS011;69200;53.612;-2.416;2023-09-19T10:02:19;1.75;;;0.30;;
79706;SDS011;69200;53.612;-2.416;2023-09-19T10:04:53;3.88;;;0.63;;
79706;SDS011;69200;53.612;-2.416;2023-09-19T10:07:40;3.35;;;0.80;;
79706;SDS011;69200;53.612;-2.416;2023-09-19T10:10:12;4.03;;;0.60;;
79706;SDS011;69200;53.612;-2.416;2023-09-19T10:12:42;4.00;;;0.63;;
79706;SDS011;69200;53.612;-2.416;2023-09-19T10:15:11;1.20;;;0.30;;
79706;SDS011;69200;53.612;-2.416;2023-09-19T10:17:44;4.07;;;0.70;;
79706;SDS011;69200;53.612;-2.416;2023-09-19T10:20:14;5.88;;;0.80;;
79706;SDS011;69200;53.612;-2.416;2023-09-19T10:23:03;6.30;;;0.50;;
79706;SDS011;69200;53.612;-2.416;2023-09-19T10:25:41;4.57;;;0.63;;
79706;SDS011;69200;53.612;-2.416;2023-09-19T10:28:11;3.67;;;0.50;;
79706;SDS011;69200;53.612;-2.416;2023-09-19T10:30:40;3.75;;;0.70;;
79706;SDS011;69200;53.612;-2.416;2023-09-19T10:33:13;2.28;;;0.50;;
79706;SDS011;69200;53.612;-2.416;2023-09-19T10:35:47;4.00;;;0.63;;
79706;SDS011;69200;53.612;-2.416;2023-09-19T10:38:14;2.95;;;0.32;;
79706;SDS011;69200;53.612;-2.416;2023-09-19T10:40:48;3.00;;;0.45;;
79706;SDS011;69200;53.612;-2.416;2023-09-19T10:43:15;2.63;;;0.43;;
79706;SDS011;69200;53.612;-2.416;2023-09-19T10:45:43;2.25;;;0.43;;
79706;SDS011;69200;53.612;-2.416;2023-09-19T10:48:10;4.68;;;0.50;;
79706;SDS011;69200;53.612;-2.416;2023-09-19T10:50:41;2.55;;;0.40;;
79706;SDS011;69200;53.612;-2.416;2023-09-19T10:53:11;2.72;;;0.75;;
79706;SDS011;69200;53.612;-2.416;2023-09-19T10:55:38;4.00;;;0.77;;
79706;SDS011;69200;53.612;-2.416;2023-09-19T10:58:05;5.10;;;0.52;;
79706;SDS011;69200;53.612;-2.416;2023-09-19T11:01:13;3.10;;;0.70;;
79706;SDS011;69200;53.612;-2.416;2023-09-19T11:03:37;5.60;;;0.63;;
79706;SDS011;69200;53.612;-2.416;2023-09-19T11:06:17;2.15;;;0.40;;
79706;SDS011;69200;53.612;-2.416;2023-09-19T11:08:57;2.85;;;0.47;;
79706;SDS011;69200;53.612;-2.416;2023-09-19T11:11:50;1.90;;;0.50;;
79706;SDS011;69200;53.612;-2.416;2023-09-19T11:30:36;4.40;;;0.95;;
79706;SDS011;69200;53.612;-2.416;2023-09-19T11:33:25;5.68;;;1.00;;
79706;SDS011;69200;53.612;-2.416;2023-09-19T11:36:05;3.85;;;0.68;;
79706;SDS011;69200;53.612;-2.416;2023-09-19T11:46:54;2.13;;;0.47;;
79706;SDS011;69200;53.612;-2.416;2023-09-19T11:52:03;1.75;;;0.57;;
79706;SDS011;69200;53.612;-2.416;2023-09-19T11:54:33;3.75;;;0.57;;
79706;SDS011;69200;53.612;-2.416;2023-09-19T11:57:02;3.10;;;0.60;;
79706;SDS011;69200;53.612;-2.416;2023-09-19T11:59:28;5.43;;;0.88;;
79706;SDS011;69200;53.612;-2.416;2023-09-19T12:01:56;2.60;;;0.60;;
79706;SDS011;69200;53.612;-2.416;2023-09-19T12:04:38;2.42;;;0.50;;
79706;SDS011;69200;53.612;-2.416;2023-09-19T12:07:13;3.60;;;0.50;;
79706;SDS011;69200;53.612;-2.416;2023-09-19T12:09:41;3.33;;;1.00;;
79706;SDS011;69200;53.612;-2.416;2023-09-19T12:12:22;3.00;;;0.50;;
79706;SDS011;69200;53.612;-2.416;2023-09-19T12:14:52;2.45;;;0.65;;
79706;SDS011;69200;53.612;-2.416;2023-09-19T12:17:19;2.85;;;0.60;;
79706;SDS011;69200;53.612;-2.416;2023-09-19T12:19:52;2.40;;;0.55;;
79706;SDS011;69200;53.612;-2.416;2023-09-19T12:22:18;6.22;;;0.85;;
79706;SDS011;69200;53.612;-2.416;2023-09-19T12:24:45;2.22;;;0.63;;
79706;SDS011;69200;53.612;-2.416;2023-09-19T12:27:11;1.77;;;0.63;;
79706;SDS011;69200;53.612;-2.416;2023-09-19T12:29:45;2.53;;;0.55;;
79706;SDS011;69200;53.612;-2.416;2023-09-19T12:32:14;2.17;;;0.68;;
79706;SDS011;69200;53.612;-2.416;2023-09-19T12:34:42;2.17;;;0.50;;
79706;SDS011;69200;53.612;-2.416;2023-09-19T12:37:11;4.97;;;1.17;;
79706;SDS011;69200;53.612;-2.416;2023-09-19T12:39:38;2.28;;;0.68;;
79706;SDS011;69200;53.612;-2.416;2023-09-19T12:42:06;4.03;;;0.70;;
79706;SDS011;69200;53.612;-2.416;2023-09-19T12:44:40;2.58;;;0.57;;
79706;SDS011;69200;53.612;-2.416;2023-09-19T12:47:11;4.93;;;0.95;;
79706;SDS011;69200;53.612;-2.416;2023-09-19T12:52:37;3.35;;;0.65;;
79706;SDS011;69200;53.612;-2.416;2023-09-19T12:55:03;2.83;;;0.55;;
79706;SDS011;69200;53.612;-2.416;2023-09-19T12:57:34;3.50;;;0.85;;
79706;SDS011;69200;53.612;-2.416;2023-09-19T13:00:01;1.48;;;0.50;;
79706;SDS011;69200;53.612;-2.416;2023-09-19T13:02:36;1.92;;;0.60;;
79706;SDS011;69200;53.612;-2.416;2023-09-19T13:05:01;2.72;;;0.60;;
79706;SDS011;69200;53.612;-2.416;2023-09-19T13:07:45;1.70;;;0.40;;
79706;SDS011;69200;53.612;-2.416;2023-09-19T13:10:15;1.33;;;0.32;;
79706;SDS011;69200;53.612;-2.416;2023-09-19T13:12:41;2.05;;;0.50;;
79706;SDS011;69200;53.612;-2.416;2023-09-19T13:15:12;3.72;;;0.98;;
79706;SDS011;69200;53.612;-2.416;2023-09-19T13:17:44;3.30;;;0.90;;
79706;SDS011;69200;53.612;-2.416;2023-09-19T13:20:24;1.60;;;0.50;;
79706;SDS011;69200;53.612;-2.416;2023-09-19T13:22:54;2.03;;;0.40;;
79706;SDS011;69200;53.612;-2.416;2023-09-19T13:25:23;2.30;;;0.30;;
79706;SDS011;69200;53.612;-2.416;2023-09-19T13:27:50;3.55;;;0.52;;
79706;SDS011;69200;53.612;-2.416;2023-09-19T13:30:17;3.15;;;0.50;;
79706;SDS011;69200;53.612;-2.416;2023-09-19T13:32:43;4.13;;;0.57;;
79706;SDS011;69200;53.612;-2.416;2023-09-19T13:35:12;3.25;;;0.70;;
79706;SDS011;69200;53.612;-2.416;2023-09-19T13:37:40;3.13;;;0.52;;
79706;SDS011;69200;53.612;-2.416;2023-09-19T13:42:34;5.10;;;0.50;;
79706;SDS011;69200;53.612;-2.416;2023-09-19T13:45:01;3.38;;;0.57;;
79706;SDS011;69200;53.612;-2.416;2023-09-19T13:47:27;1.90;;;0.45;;
79706;SDS011;69200;53.612;-2.416;2023-09-19T13:49:53;2.50;;;0.30;;
79706;SDS011;69200;53.612;-2.416;2023-09-19T13:52:19;2.10;;;0.52;;
79706;SDS011;69200;53.612;-2.416;2023-09-19T13:54:46;5.18;;;0.73;;
79706;SDS011;69200;53.612;-2.416;2023-09-19T13:57:12;2.53;;;0.40;;
79706;SDS011;69200;53.612;-2.416;2023-09-19T13:59:38;1.48;;;0.40;;
79706;SDS011;69200;53.612;-2.416;2023-09-19T14:02:04;1.58;;;0.40;;
79706;SDS011;69200;53.612;-2.416;2023-09-19T14:04:32;1.08;;;0.40;;
79706;SDS011;69200;53.612;-2.416;2023-09-19T14:06:59;3.50;;;0.50;;
79706;SDS011;69200;53.612;-2.416;2023-09-19T14:09:25;1.23;;;0.30;;
79706;SDS011;69200;53.612;-2.416;2023-09-19T14:11:51;5.03;;;0.82;;
79706;SDS011;69200;53.612;-2.416;2023-09-19T14:14:18;2.53;;;0.60;;
79706;SDS011;69200;53.612;-2.416;2023-09-19T14:16:46;6.13;;;0.60;;
79706;SDS011;69200;53.612;-2.416;2023-09-19T14:19:12;2.45;;;0.47;;
79706;SDS011;69200;53.612;-2.416;2023-09-19T14:21:39;2.88;;;0.47;;
79706;SDS011;69200;53.612;-2.416;2023-09-19T14:24:04;3.30;;;0.80;;
79706;SDS011;69200;53.612;-2.416;2023-09-19T14:26:34;6.28;;;1.00;;
79706;SDS011;69200;53.612;-2.416;2023-09-19T14:29:00;2.15;;;0.70;;
79706;SDS011;69200;53.612;-2.416;2023-09-19T14:31:25;4.35;;;0.70;;
79706;SDS011;69200;53.612;-2.416;2023-09-19T14:33:53;4.50;;;0.80;;
79706;SDS011;69200;53.612;-2.416;2023-09-19T14:36:20;5.68;;;1.00;;
79706;SDS011;69200;53.612;-2.416;2023-09-19T14:38:46;4.32;;;1.00;;
79706;SDS011;69200;53.612;-2.416;2023-09-19T14:41:12;5.28;;;1.27;;
79706;SDS011;69200;53.612;-2.416;2023-09-19T14:43:38;6.03;;;1.17;;
79706;SDS011;69200;53.612;-2.416;2023-09-19T14:46:04;7.65;;;1.38;;
79706;SDS011;69200;53.612;-2.416;2023-09-19T14:48:35;9.52;;;1.75;;
79706;SDS011;69200;53.612;-2.416;2023-09-19T14:51:04;11.75;;;1.77;;
79706;SDS011;69200;53.612;-2.416;2023-09-19T14:53:31;11.35;;;1.70;;
79706;SDS011;69200;53.612;-2.416;2023-09-19T14:55:59;11.27;;;1.40;;
79706;SDS011;69200;53.612;-2.416;2023-09-19T14:58:29;13.60;;;1.95;;
79706;SDS011;69200;53.612;-2.416;2023-09-19T15:01:05;17.02;;;1.77;;
79706;SDS011;69200;53.612;-2.416;2023-09-19T15:03:31;13.85;;;1.73;;
79706;SDS011;69200;53.612;-2.416;2023-09-19T15:06:05;11.18;;;2.10;;
79706;SDS011;69200;53.612;-2.416;2023-09-19T15:08:32;23.15;;;2.63;;
79706;SDS011;69200;53.612;-2.416;2023-09-19T15:10:59;23.17;;;2.70;;
79706;SDS011;69200;53.612;-2.416;2023-09-19T15:13:29;12.82;;;2.72;;
79706;SDS011;69200;53.612;-2.416;2023-09-19T15:15:59;10.07;;;2.13;;
79706;SDS011;69200;53.612;-2.416;2023-09-19T15:18:26;17.17;;;2.65;;
79706;SDS011;69200;53.612;-2.416;2023-09-19T15:20:51;13.75;;;2.67;;
79706;SDS011;69200;53.612;-2.416;2023-09-19T15:23:17;7.97;;;1.98;;
79706;SDS011;69200;53.612;-2.416;2023-09-19T15:25:47;15.82;;;2.10;;
79706;SDS011;69200;53.612;-2.416;2023-09-19T15:28:15;10.82;;;1.70;;
79706;SDS011;69200;53.612;-2.416;2023-09-19T15:30:41;13.02;;;3.13;;
79706;SDS011;69200;53.612;-2.416;2023-09-19T15:33:06;11.38;;;1.77;;
79706;SDS011;69200;53.612;-2.416;2023-09-19T15:35:32;10.07;;;1.67;;
79706;SDS011;69200;53.612;-2.416;2023-09-19T15:37:58;6.53;;;1.48;;
79706;SDS011;69200;53.612;-2.416;2023-09-19T15:40:25;9.05;;;2.20;;
79706;SDS011;69200;53.612;-2.416;2023-09-19T15:42:52;13.63;;;2.35;;
79706;SDS011;69200;53.612;-2.416;2023-09-19T15:45:19;14.05;;;2.33;;